Time;durP1;ratioP1;P1;durP2;ratioP2;P2;SDS_P1;SDS_P2;PMS_P1;PMS_P2;Temp;Humidity;BMP_temperature;BMP_pressure;BME280_temperature;BME280_humidity;BME280_pressure;Samples;Min_cycle;Max_cycle;Signal;HPM_P1;HPM_P2
2023/05/14 00:02:04;;;;;;;15.93;10.83;;;11.20;99.90;;;;;;5018497;28;20194;-95
2023/05/14 00:04:31;;;;;;;15.17;11.07;;;11.10;99.90;;;;;;5033440;28;20191;-96
2023/05/14 00:06:59;;;;;;;14.77;10.67;;;11.10;99.90;;;;;;5038138;28;20224;-96
2023/05/14 00:09:26;;;;;;;12.80;10.03;;;11.00;99.90;;;;;;5038025;28;20212;-95
2023/05/14 00:11:53;;;;;;;13.57;10.70;;;10.90;99.90;;;;;;5037132;28;20293;-95
2023/05/14 00:14:20;;;;;;;16.20;11.63;;;10.70;99.90;;;;;;5022760;28;20796;-96
2023/05/14 00:16:47;;;;;;;14.93;11.20;;;10.70;99.90;;;;;;5033592;28;20289;-95
2023/05/14 00:19:13;;;;;;;15.03;10.93;;;10.60;99.90;;;;;;5036885;28;20284;-96
2023/05/14 00:21:40;;;;;;;16.30;11.10;;;10.40;99.90;;;;;;5028938;28;20566;-95
2023/05/14 00:24:08;;;;;;;16.77;10.93;;;10.30;99.90;;;;;;5016888;28;20190;-95
2023/05/14 00:26:35;;;;;;;17.13;10.17;;;10.20;99.90;;;;;;5016790;28;20742;-95
2023/05/14 00:29:02;;;;;;;15.17;10.30;;;10.20;99.90;;;;;;5016640;28;20697;-94
2023/05/14 00:31:29;;;;;;;18.33;9.90;;;10.10;99.90;;;;;;5017056;28;20228;-96
2023/05/14 00:33:55;;;;;;;14.70;10.03;;;10.10;1.00;;;;;;5017022;28;20196;-95
2023/05/14 00:36:22;;;;;;;23.20;10.23;;;10.10;1.00;;;;;;5016758;28;20189;-95
2023/05/14 00:38:49;;;;;;;13.67;9.97;;;10.20;1.00;;;;;;5017789;28;20288;-95
2023/05/14 00:41:18;;;;;;;15.60;9.47;;;10.20;1.00;;;;;;5017354;28;20245;-96
2023/05/14 00:43:44;;;;;;;14.13;9.50;;;10.30;1.00;;;;;;5017318;28;20310;-94
2023/05/14 00:46:12;;;;;;;12.83;8.93;;;10.40;1.00;;;;;;5017941;28;20251;-96
2023/05/14 00:48:39;;;;;;;11.77;8.70;;;10.40;1.00;;;;;;5027423;28;20226;-95
2023/05/14 00:51:07;;;;;;;10.93;9.20;;;10.40;1.00;;;;;;5036292;28;20224;-96
2023/05/14 00:53:35;;;;;;;12.63;8.87;;;10.50;1.00;;;;;;5036369;28;20575;-96
2023/05/14 00:56:02;;;;;;;13.07;8.67;;;10.50;1.00;;;;;;5036104;28;20576;-96
2023/05/14 00:58:31;;;;;;;10.23;8.00;;;10.60;1.00;;;;;;5036894;28;20203;-96
2023/05/14 01:00:58;;;;;;;9.83;8.43;;;10.60;1.00;;;;;;5036528;28;20193;-95
2023/05/14 01:03:24;;;;;;;10.03;7.90;;;10.70;1.00;;;;;;5030878;28;20193;-96
2023/05/14 01:05:59;;;;;;;10.57;8.00;;;10.70;1.00;;;;;;5016877;28;20694;-96
2023/05/14 01:08:36;;;;;;;9.70;7.90;;;10.70;1.00;;;;;;5020732;28;20276;-95
2023/05/14 01:11:07;;;;;;;8.80;7.90;;;10.70;1.00;;;;;;5021183;28;20185;-96
2023/05/14 01:13:43;;;;;;;8.87;7.60;;;10.80;1.00;;;;;;5017138;28;20234;-95
2023/05/14 01:16:13;;;;;;;11.57;7.40;;;10.70;1.00;;;;;;5016016;28;20208;-96
2023/05/14 01:18:42;;;;;;;16.27;7.93;;;10.70;1.00;;;;;;5016919;28;20208;-96
2023/05/14 01:21:34;;;;;;;8.00;7.20;;;10.80;1.00;;;;;;5015913;28;20206;-96
2023/05/14 01:24:03;;;;;;;9.10;7.20;;;10.80;1.00;;;;;;5015823;28;20186;-95
2023/05/14 01:26:30;;;;;;;8.40;7.30;;;10.80;1.00;;;;;;5015877;28;20239;-95
2023/05/14 01:29:02;;;;;;;9.47;7.10;;;10.80;1.00;;;;;;5017065;28;20222;-95
2023/05/14 01:31:32;;;;;;;8.60;6.73;;;10.90;1.00;;;;;;5016538;28;20209;-96
2023/05/14 01:34:02;;;;;;;11.43;7.30;;;10.90;1.00;;;;;;5026345;28;20289;-96
2023/05/14 01:36:30;;;;;;;9.40;7.67;;;10.90;1.00;;;;;;5036173;28;20430;-95
2023/05/14 01:38:58;;;;;;;10.07;7.03;;;10.90;1.00;;;;;;5035910;28;20647;-96
2023/05/14 01:41:27;;;;;;;10.90;7.30;;;10.90;1.00;;;;;;5036443;28;20194;-96
2023/05/14 01:43:54;;;;;;;13.87;7.97;;;10.90;1.00;;;;;;5022401;28;20231;-96
2023/05/14 01:46:22;;;;;;;10.03;7.57;;;10.90;1.00;;;;;;5037535;28;20227;-96
2023/05/14 01:48:49;;;;;;;11.83;7.70;;;10.80;1.00;;;;;;5036712;28;20232;-96
2023/05/14 01:51:16;;;;;;;9.70;7.50;;;10.80;1.00;;;;;;5038685;28;20196;-96
2023/05/14 01:53:43;;;;;;;8.73;7.20;;;10.80;1.00;;;;;;5059482;28;20288;-96
2023/05/14 01:56:10;;;;;;;9.53;7.50;;;10.80;1.00;;;;;;5058649;28;20194;-96
2023/05/14 01:58:38;;;;;;;10.10;8.50;;;10.80;1.00;;;;;;5040872;28;20282;-96
2023/05/14 02:01:05;;;;;;;10.80;8.50;;;10.90;1.00;;;;;;5037807;28;20251;-96
2023/05/14 02:03:32;;;;;;;10.50;9.03;;;10.80;1.00;;;;;;5044102;28;20238;-96
2023/05/14 02:05:59;;;;;;;11.77;8.00;;;10.70;1.00;;;;;;5039996;28;20627;-96
2023/05/14 02:08:26;;;;;;;10.17;8.20;;;10.70;1.00;;;;;;5061996;28;20580;-96
2023/05/14 02:10:53;;;;;;;13.20;8.80;;;10.60;1.00;;;;;;5037612;28;20222;-95
2023/05/14 02:13:20;;;;;;;10.20;8.80;;;10.60;1.00;;;;;;5041102;28;20203;-95
2023/05/14 02:15:49;;;;;;;13.90;9.13;;;10.50;1.00;;;;;;5054669;28;20211;-95
2023/05/14 02:18:16;;;;;;;11.43;8.90;;;10.50;1.00;;;;;;5054338;28;20292;-95
2023/05/14 02:20:42;;;;;;;10.67;8.87;;;10.50;1.00;;;;;;5054768;28;20659;-96
2023/05/14 02:23:09;;;;;;;12.10;9.13;;;10.40;1.00;;;;;;5055195;28;20365;-95
2023/05/14 02:25:36;;;;;;;11.17;8.57;;;10.40;1.00;;;;;;5055275;28;20196;-95
2023/05/14 02:28:03;;;;;;;11.63;8.90;;;10.40;1.00;;;;;;5054732;28;20223;-95
2023/05/14 02:30:30;;;;;;;12.33;8.43;;;10.30;1.00;;;;;;5054475;28;20213;-95
2023/05/14 02:32:58;;;;;;;9.47;8.47;;;10.30;13.10;;;;;;5052457;28;20204;-96
2023/05/14 02:35:25;;;;;;;12.73;9.07;;;10.30;39.20;;;;;;5035278;28;20287;-96
2023/05/14 02:37:52;;;;;;;12.17;9.47;;;10.30;21.40;;;;;;5049392;28;20196;-96
2023/05/14 02:40:18;;;;;;;12.33;8.83;;;10.30;24.40;;;;;;5054521;28;20262;-95
2023/05/14 02:42:45;;;;;;;10.43;9.10;;;10.20;57.10;;;;;;5054308;28;20228;-96
2023/05/14 02:45:12;;;;;;;14.67;9.90;;;10.10;96.30;;;;;;5054909;28;20238;-96
2023/05/14 02:47:39;;;;;;;15.40;9.50;;;10.10;99.90;;;;;;5054482;28;20205;-96
2023/05/14 02:50:09;;;;;;;12.73;9.53;;;10.00;99.90;;;;;;5053653;28;20628;-95
2023/05/14 02:52:36;;;;;;;15.37;9.90;;;10.00;99.90;;;;;;5054338;28;20281;-96
2023/05/14 02:55:03;;;;;;;11.97;9.73;;;10.00;99.90;;;;;;5038036;28;20660;-96
2023/05/14 02:57:30;;;;;;;15.87;9.83;;;10.00;99.90;;;;;;5054197;28;20199;-95
2023/05/14 02:59:56;;;;;;;14.03;10.03;;;9.90;99.90;;;;;;5054124;28;20278;-95
2023/05/14 03:02:23;;;;;;;12.00;9.73;;;9.90;99.90;;;;;;5054289;28;20215;-96
2023/05/14 03:04:50;;;;;;;12.77;9.10;;;9.90;99.90;;;;;;5037079;28;20654;-96
2023/05/14 03:07:18;;;;;;;11.87;9.43;;;9.90;99.90;;;;;;5039847;28;20188;-96
2023/05/14 03:09:45;;;;;;;13.43;9.23;;;10.00;99.90;;;;;;5054770;28;20305;-96
2023/05/14 03:12:13;;;;;;;13.40;9.70;;;10.00;99.90;;;;;;5057336;28;20607;-96
2023/05/14 03:14:40;;;;;;;12.70;9.27;;;10.10;99.90;;;;;;5053251;28;20257;-96
2023/05/14 03:17:06;;;;;;;15.57;9.67;;;10.20;99.90;;;;;;5034906;28;20211;-96
2023/05/14 03:19:33;;;;;;;13.53;9.83;;;10.30;99.90;;;;;;5044299;28;20272;-96
2023/05/14 03:22:00;;;;;;;14.20;9.80;;;10.30;99.90;;;;;;5038198;28;20283;-96
2023/05/14 03:24:28;;;;;;;15.07;9.63;;;10.40;99.90;;;;;;5038097;28;20204;-96
2023/05/14 03:26:55;;;;;;;12.67;9.70;;;10.40;99.90;;;;;;5037971;28;20201;-96
2023/05/14 03:29:22;;;;;;;11.67;8.93;;;10.40;89.60;;;;;;5053712;28;20223;-96
2023/05/14 03:31:49;;;;;;;13.70;9.63;;;10.50;49.70;;;;;;5055143;28;20193;-95
2023/05/14 03:34:16;;;;;;;11.67;9.37;;;10.50;24.30;;;;;;5057970;28;20204;-95
2023/05/14 03:36:43;;;;;;;14.37;10.10;;;10.60;8.90;;;;;;5057799;28;20285;-95
2023/05/14 03:39:10;;;;;;;16.93;10.70;;;10.60;1.00;;;;;;5057421;28;20190;-96
2023/05/14 03:41:38;;;;;;;13.57;10.00;;;10.70;1.00;;;;;;5057607;28;20250;-96
2023/05/14 03:44:05;;;;;;;13.70;10.40;;;10.70;1.00;;;;;;5057184;28;20223;-96
2023/05/14 03:46:32;;;;;;;12.73;9.70;;;10.80;1.00;;;;;;5057743;28;20209;-96
2023/05/14 03:48:58;;;;;;;11.30;8.80;;;11.10;1.00;;;;;;5057542;28;20211;-96
2023/05/14 03:51:25;;;;;;;13.77;9.17;;;11.40;1.00;;;;;;5056557;28;20204;-96
2023/05/14 03:53:52;;;;;;;11.77;9.50;;;11.60;1.00;;;;;;5057241;28;20201;-96
2023/05/14 03:56:19;;;;;;;11.67;9.37;;;11.90;1.00;;;;;;5057493;28;20203;-96
2023/05/14 03:58:47;;;;;;;13.17;9.57;;;12.10;1.00;;;;;;5038625;28;20204;-95
2023/05/14 04:01:14;;;;;;;13.63;9.10;;;12.40;1.00;;;;;;5037224;28;20202;-96
2023/05/14 04:03:41;;;;;;;12.57;9.10;;;12.60;1.00;;;;;;5037777;28;20236;-96
2023/05/14 04:06:08;;;;;;;13.60;8.77;;;12.80;1.00;;;;;;5037759;28;20243;-96
2023/05/14 04:08:35;;;;;;;10.33;9.13;;;13.10;1.00;;;;;;5038039;28;20229;-95
2023/05/14 04:11:01;;;;;;;15.17;8.83;;;13.30;1.00;;;;;;5057188;28;20307;-96
2023/05/14 04:13:28;;;;;;;11.17;8.97;;;13.50;1.00;;;;;;5043628;28;20286;-96
2023/05/14 04:15:56;;;;;;;12.67;9.03;;;13.90;1.00;;;;;;5045668;28;20280;-95
2023/05/14 04:18:23;;;;;;;12.13;8.70;;;14.20;1.00;;;;;;5057173;28;20222;-96
2023/05/14 04:20:50;;;;;;;12.33;8.70;;;14.40;1.00;;;;;;5058302;28;20289;-96
2023/05/14 04:23:17;;;;;;;11.20;8.80;;;14.50;1.00;;;;;;5057502;28;20196;-96
2023/05/14 04:25:44;;;;;;;10.97;8.60;;;14.60;1.00;;;;;;5041269;28;20710;-96
2023/05/14 04:28:10;;;;;;;10.60;8.50;;;14.80;1.00;;;;;;5036263;28;20767;-96
2023/05/14 04:30:37;;;;;;;11.97;9.13;;;14.90;1.00;;;;;;5036829;28;20216;-96
2023/05/14 04:33:05;;;;;;;10.63;8.57;;;15.10;1.00;;;;;;5038458;28;20256;-96
2023/05/14 04:35:32;;;;;;;11.10;8.73;;;15.30;1.00;;;;;;5037144;28;20209;-96
2023/05/14 04:37:59;;;;;;;12.23;8.65;;;15.50;99.90;;;;;;5052312;28;20568;-95
2023/05/14 04:40:26;;;;;;;11.35;8.73;;;15.70;99.90;;;;;;5056292;28;20205;-96
2023/05/14 04:42:53;;;;;;;13.63;9.02;;;15.80;99.90;;;;;;5045190;28;20230;-95
2023/05/14 04:45:20;;;;;;;9.80;8.07;;;15.90;99.90;;;;;;5036436;28;20288;-95
2023/05/14 04:47:46;;;;;;;11.15;8.40;;;16.00;99.90;;;;;;5036585;28;20649;-95
2023/05/14 04:50:15;;;;;;;13.10;8.32;;;16.00;99.90;;;;;;5035960;28;20307;-96
2023/05/14 04:52:42;;;;;;;12.60;8.68;;;16.00;99.90;;;;;;5035906;28;20200;-96
2023/05/14 04:55:10;;;;;;;11.57;8.63;;;16.00;99.90;;;;;;5036509;28;20231;-96
2023/05/14 04:57:36;;;;;;;12.07;8.85;;;15.80;99.90;;;;;;5045385;28;20275;-95
2023/05/14 05:00:08;;;;;;;10.70;8.37;;;15.50;99.90;;;;;;5057153;28;20200;-95
2023/05/14 05:02:35;;;;;;;10.57;8.90;;;15.20;99.90;;;;;;5055888;28;20195;-95
2023/05/14 05:05:02;;;;;;;11.60;9.20;;;15.00;99.90;;;;;;5056607;28;20291;-95
2023/05/14 05:07:31;;;;;;;12.23;9.27;;;14.70;99.90;;;;;;5040794;28;20204;-96
2023/05/14 05:09:57;;;;;;;13.13;9.83;;;14.60;99.90;;;;;;5036691;28;20314;-96
2023/05/14 05:12:24;;;;;;;14.20;9.30;;;14.40;99.90;;;;;;5035827;28;20238;-96
2023/05/14 05:14:51;;;;;;;10.60;9.03;;;14.30;99.90;;;;;;5035780;28;20228;-96
2023/05/14 05:17:18;;;;;;;14.00;8.83;;;14.20;99.90;;;;;;5036846;28;20226;-96
2023/05/14 05:19:45;;;;;;;10.07;8.70;;;14.10;1.00;;;;;;5059049;28;20293;-96
2023/05/14 05:22:12;;;;;;;11.93;8.90;;;14.10;1.00;;;;;;5058932;28;20299;-96
2023/05/14 05:24:40;;;;;;;11.37;8.50;;;14.10;1.00;;;;;;5057715;28;20216;-96
2023/05/14 05:27:07;;;;;;;9.90;8.40;;;14.00;1.00;;;;;;5066181;28;20188;-96
2023/05/14 05:29:35;;;;;;;11.33;8.53;;;13.80;1.00;;;;;;5054214;28;20272;-95
2023/05/14 05:32:02;;;;;;;12.20;9.23;;;13.70;1.00;;;;;;5048579;28;20277;-96
2023/05/14 05:34:29;;;;;;;10.83;8.83;;;13.60;1.00;;;;;;5044348;28;20208;-94
2023/05/14 05:36:56;;;;;;;11.67;9.00;;;13.60;1.00;;;;;;5042609;28;20201;-95
2023/05/14 05:39:23;;;;;;;10.53;8.90;;;13.70;1.00;;;;;;5043518;28;20197;-94
2023/05/14 05:41:51;;;;;;;11.57;8.40;;;14.00;1.00;;;;;;5055865;28;20203;-94
2023/05/14 05:44:18;;;;;;;15.40;8.63;;;14.50;1.00;;;;;;5055044;28;20242;-94
2023/05/14 05:46:44;;;;;;;10.90;8.47;;;15.10;1.00;;;;;;5054834;28;20679;-94
2023/05/14 05:49:11;;;;;;;10.67;8.20;;;15.70;1.00;;;;;;5055161;28;20569;-94
2023/05/14 05:51:38;;;;;;;10.77;8.45;;;16.10;1.00;;;;;;5055094;28;20221;-93
2023/05/14 05:54:05;;;;;;;10.95;8.70;;;16.40;99.90;;;;;;5054970;28;20217;-94
2023/05/14 05:56:31;;;;;;;13.10;9.75;;;16.40;99.90;;;;;;5034722;28;20201;-94
2023/05/14 05:59:00;;;;;;;16.80;9.15;;;16.40;99.90;;;;;;5041974;28;20194;-93
2023/05/14 06:01:26;;;;;;;10.85;9.00;;;16.30;99.90;;;;;;5060294;28;20281;-94
2023/05/14 06:03:53;;;;;;;12.40;8.90;;;16.30;99.90;;;;;;5054950;28;20199;-95
2023/05/14 06:06:20;;;;;;;14.27;10.02;;;16.20;99.90;;;;;;5054402;28;20195;-94
2023/05/14 06:08:47;;;;;;;15.20;10.13;;;16.30;99.90;;;;;;5039016;28;20193;-94
2023/05/14 06:11:14;;;;;;;15.70;11.23;;;16.30;99.90;;;;;;5047503;28;20219;-94
2023/05/14 06:13:41;;;;;;;17.73;10.77;;;16.40;99.90;;;;;;5038025;28;20628;-95
2023/05/14 06:16:10;;;;;;;17.05;12.38;;;16.40;99.90;;;;;;5034880;28;20205;-94
2023/05/14 06:18:37;;;;;;;22.27;12.40;;;16.30;99.90;;;;;;5034870;28;20205;-92
2023/05/14 06:21:04;;;;;;;19.02;11.55;;;16.20;99.90;;;;;;5034611;28;20199;-95
2023/05/14 06:23:30;;;;;;;13.35;10.90;;;16.10;99.90;;;;;;5034853;28;20566;-95
2023/05/14 06:25:57;;;;;;;13.18;10.93;;;16.20;99.90;;;;;;5054067;28;20205;-95
2023/05/14 06:28:25;;;;;;;12.10;10.52;;;16.30;99.90;;;;;;5054560;28;20660;-95
2023/05/14 06:30:52;;;;;;;14.88;10.27;;;16.50;99.90;;;;;;5054751;28;20333;-95
2023/05/14 06:33:28;;;;;;;12.35;10.13;;;16.80;99.90;;;;;;5054856;28;20252;-96
2023/05/14 06:35:55;;;;;;;13.70;10.02;;;17.20;99.90;;;;;;5052152;28;20206;-95
2023/05/14 06:38:22;;;;;;;12.60;10.10;;;17.60;99.90;;;;;;5034566;28;20197;-96
2023/05/14 06:40:48;;;;;;;12.13;9.73;;;18.00;99.90;;;;;;5044709;28;20192;-90
2023/05/14 06:43:15;;;;;;;13.32;9.85;;;18.40;99.90;;;;;;5055947;28;20197;-96
2023/05/14 06:45:42;;;;;;;14.38;10.13;;;18.60;99.90;;;;;;5057794;28;20209;-94
2023/05/14 06:48:09;;;;;;;14.65;9.80;;;18.80;99.90;;;;;;5050700;28;20201;-95
2023/05/14 06:50:37;;;;;;;11.07;8.48;;;19.00;99.90;;;;;;5068412;28;20215;-96
2023/05/14 06:53:04;;;;;;;11.88;9.00;;;19.00;99.90;;;;;;5041859;28;20190;-96
2023/05/14 06:55:31;;;;;;;13.45;8.68;;;19.00;99.90;;;;;;5054500;28;20207;-95
2023/05/14 06:57:58;;;;;;;11.02;8.88;;;18.90;99.90;;;;;;5040840;28;20200;-96
2023/05/14 07:00:25;;;;;;;8.65;7.53;;;19.00;99.90;;;;;;5039770;28;20204;-94
2023/05/14 07:02:52;;;;;;;9.02;7.15;;;19.10;99.90;;;;;;5039654;28;20280;-95
2023/05/14 07:05:19;;;;;;;10.65;7.78;;;19.20;99.90;;;;;;5058304;28;20197;-95
2023/05/14 07:07:47;;;;;;;18.13;14.38;;;19.40;99.90;;;;;;5041900;28;20243;-96
2023/05/14 07:10:14;;;;;;;14.13;7.35;;;19.60;1.00;;;;;;5049467;28;20391;-94
2023/05/14 07:12:40;;;;;;;10.88;7.13;;;19.80;1.00;;;;;;5058917;28;20250;-95
2023/05/14 07:15:08;;;;;;;10.77;6.55;;;20.00;1.00;;;;;;5056476;28;20185;-94
2023/05/14 07:17:36;;;;;;;11.35;6.80;;;19.90;1.00;;;;;;5057429;28;20193;-94
2023/05/14 07:20:03;;;;;;;13.75;6.18;;;19.80;1.00;;;;;;5038005;28;20194;-94
2023/05/14 07:22:30;;;;;;;9.18;6.35;;;19.90;1.00;;;;;;5048808;28;20193;-94
2023/05/14 07:24:58;;;;;;;11.38;6.28;;;19.90;1.00;;;;;;5057940;28;20661;-94
2023/05/14 07:27:25;;;;;;;10.40;6.05;;;19.90;1.00;;;;;;5057589;28;20204;-94
2023/05/14 07:29:52;;;;;;;7.88;6.00;;;19.90;1.00;;;;;;5057475;28;20217;-94
2023/05/14 07:32:19;;;;;;;10.07;6.22;;;20.00;1.00;;;;;;5057488;28;20202;-93
2023/05/14 07:34:46;;;;;;;9.45;5.85;;;20.10;1.00;;;;;;5046184;28;20206;-94
2023/05/14 07:37:13;;;;;;;8.25;6.18;;;20.20;1.00;;;;;;5037138;28;20588;-92
2023/05/14 07:39:40;;;;;;;10.32;6.18;;;20.30;1.00;;;;;;5037300;28;20657;-93
2023/05/14 07:42:08;;;;;;;9.25;6.35;;;20.40;1.00;;;;;;5064030;28;20197;-93
2023/05/14 07:44:35;;;;;;;8.55;5.60;;;20.50;1.00;;;;;;5066740;28;20224;-92
2023/05/14 07:47:03;;;;;;;7.07;5.72;;;20.40;1.00;;;;;;5037159;28;20198;-94
2023/05/14 07:49:29;;;;;;;8.15;5.63;;;20.30;1.00;;;;;;5040627;28;20212;-94
2023/05/14 07:51:56;;;;;;;11.70;5.90;;;20.40;1.00;;;;;;5048849;28;20643;-93
2023/05/14 07:54:23;;;;;;;8.93;6.03;;;20.50;1.00;;;;;;5066465;28;20201;-92
2023/05/14 07:56:50;;;;;;;9.88;5.50;;;20.50;1.00;;;;;;5047651;28;20201;-94
2023/05/14 07:59:18;;;;;;;10.10;5.75;;;20.50;1.00;;;;;;5053212;28;20203;-93
2023/05/14 08:01:45;;;;;;;10.63;5.55;;;20.50;1.00;;;;;;5063014;28;20188;-93
2023/05/14 08:04:11;;;;;;;8.32;5.18;;;20.60;1.00;;;;;;5071509;28;20648;-92
2023/05/14 08:06:38;;;;;;;7.65;5.57;;;20.60;1.00;;;;;;5067402;28;20192;-92
2023/05/14 08:09:05;;;;;;;5.78;5.18;;;20.70;1.00;;;;;;5047650;28;20204;-93
2023/05/14 08:11:32;;;;;;;10.32;5.28;;;20.80;1.00;;;;;;5066747;28;20278;-93
2023/05/14 08:13:59;;;;;;;8.48;5.47;;;20.90;1.00;;;;;;5048720;28;20205;-92
2023/05/14 08:16:27;;;;;;;9.10;5.22;;;20.90;1.00;;;;;;5061239;28;20200;-93
2023/05/14 08:18:54;;;;;;;8.98;5.40;;;21.00;1.00;;;;;;5045988;28;20284;-93
2023/05/14 08:21:21;;;;;;;8.30;5.43;;;21.00;1.00;;;;;;5061615;28;20192;-92
2023/05/14 08:23:47;;;;;;;8.15;5.85;;;21.10;1.00;;;;;;5051090;28;20215;-93
2023/05/14 08:26:14;;;;;;;10.05;5.22;;;21.10;1.00;;;;;;5051306;28;20200;-93
2023/05/14 08:28:41;;;;;;;8.63;5.40;;;21.10;1.00;;;;;;5050143;28;20192;-93
2023/05/14 08:31:08;;;;;;;8.23;5.47;;;21.00;1.00;;;;;;5052987;28;20218;-93
2023/05/14 08:33:36;;;;;;;7.78;5.78;;;21.10;1.00;;;;;;5063950;28;20197;-93
2023/05/14 08:36:03;;;;;;;7.00;5.53;;;21.20;1.00;;;;;;5052359;28;20201;-93
2023/05/14 08:38:30;;;;;;;9.00;5.55;;;21.30;1.00;;;;;;5041665;28;20224;-94
2023/05/14 08:40:58;;;;;;;8.48;5.70;;;21.30;1.00;;;;;;5054958;28;20250;-93
2023/05/14 08:43:28;;;;;;;8.20;5.60;;;21.30;1.00;;;;;;5057001;28;20209;-92
2023/05/14 08:46:00;;;;;;;6.55;4.88;;;21.30;1.00;;;;;;5055196;28;20204;-93
2023/05/14 08:48:31;;;;;;;6.30;5.47;;;21.50;1.00;;;;;;5042820;28;20257;-93
2023/05/14 08:51:00;;;;;;;8.27;5.50;;;21.70;1.00;;;;;;5066440;28;20227;-93
2023/05/14 08:53:27;;;;;;;10.32;6.32;;;21.90;1.00;;;;;;5055633;28;20192;-92
2023/05/14 08:55:54;;;;;;;8.77;5.43;;;21.90;1.00;;;;;;5055383;28;20567;-93
2023/05/14 08:58:21;;;;;;;7.88;5.60;;;22.10;1.00;;;;;;5054071;28;20203;-93
2023/05/14 09:00:48;;;;;;;13.98;5.88;;;22.10;1.00;;;;;;5058076;28;20196;-93
2023/05/14 09:03:15;;;;;;;9.18;5.63;;;22.20;1.00;;;;;;5058502;28;20201;-93
2023/05/14 09:05:42;;;;;;;6.80;5.32;;;22.20;1.00;;;;;;5058383;28;20192;-92
2023/05/14 09:08:10;;;;;;;6.95;5.45;;;22.20;1.00;;;;;;5075491;28;20215;-93
2023/05/14 09:10:39;;;;;;;7.35;5.07;;;22.20;1.00;;;;;;5047381;28;20697;-92
2023/05/14 09:13:06;;;;;;;8.52;5.07;;;22.30;1.00;;;;;;5051266;28;20216;-93
2023/05/14 09:15:35;;;;;;;8.38;5.40;;;22.40;1.00;;;;;;5058956;28;20202;-92
2023/05/14 09:18:01;;;;;;;10.05;5.15;;;22.50;1.00;;;;;;5058779;28;20207;-92
2023/05/14 09:20:28;;;;;;;7.55;5.03;;;22.60;1.00;;;;;;5045926;28;20563;-93
2023/05/14 09:22:55;;;;;;;11.90;5.05;;;22.70;1.00;;;;;;5056486;28;20670;-93
2023/05/14 09:25:26;;;;;;;7.03;4.45;;;22.60;1.00;;;;;;5048856;28;20193;-91
2023/05/14 09:27:54;;;;;;;8.43;4.13;;;22.60;1.00;;;;;;5062293;28;20189;-92
2023/05/14 09:30:21;;;;;;;11.27;6.43;;;22.70;1.00;;;;;;5059463;28;20654;-92
2023/05/14 09:32:49;;;;;;;8.35;4.75;;;22.70;1.00;;;;;;5046761;28;20205;-93
2023/05/14 09:35:18;;;;;;;8.55;4.80;;;22.80;1.00;;;;;;5055067;28;20201;-92
2023/05/14 09:37:46;;;;;;;8.52;4.85;;;23.00;1.00;;;;;;5041094;28;20203;-93
2023/05/14 09:40:13;;;;;;;10.02;4.72;;;23.10;1.00;;;;;;5054972;28;20197;-92
2023/05/14 09:42:42;;;;;;;7.55;4.65;;;;;;;;;;5063494;28;20201;-92
2023/05/14 09:45:10;;;;;;;8.60;5.10;;;23.20;1.00;;;;;;5052005;28;20779;-92
2023/05/14 09:47:37;;;;;;;8.95;4.95;;;23.40;1.00;;;;;;5065722;28;20200;-92
2023/05/14 09:50:06;;;;;;;7.65;5.00;;;23.40;1.00;;;;;;5040735;28;20204;-92
2023/05/14 09:52:33;;;;;;;9.38;5.00;;;23.60;1.00;;;;;;5040168;28;20232;-92
2023/05/14 09:55:00;;;;;;;6.82;4.57;;;23.80;1.00;;;;;;5051920;28;20208;-92
2023/05/14 09:57:27;;;;;;;9.10;4.80;;;24.10;1.00;;;;;;5065586;28;20280;-94
2023/05/14 09:59:55;;;;;;;10.77;4.35;;;24.20;1.00;;;;;;5067295;28;20223;-92
2023/05/14 10:02:24;;;;;;;7.30;3.80;;;24.30;1.00;;;;;;5065885;28;20199;-93
2023/05/14 10:04:52;;;;;;;18.02;5.43;;;24.60;1.00;;;;;;5044163;28;20283;-94
2023/05/14 10:07:22;;;;;;;9.18;4.50;;;25.10;1.00;;;;;;5074725;28;20196;-94
2023/05/14 10:09:54;;;;;;;9.48;4.50;;;25.50;1.00;;;;;;5034453;28;20688;-93
2023/05/14 10:12:23;;;;;;;7.55;4.00;;;25.90;1.00;;;;;;5039778;28;20232;-93
2023/05/14 10:14:52;;;;;;;10.38;4.32;;;26.00;99.90;;;;;;5065210;28;20198;-93
2023/05/14 10:17:23;;;;;;;7.05;3.83;;;25.90;99.90;;;;;;5052296;28;20552;-94
2023/05/14 10:19:54;;;;;;;6.78;4.40;;;25.70;99.90;;;;;;5046026;28;20200;-93
2023/05/14 10:22:24;;;;;;;5.60;3.92;;;25.60;99.90;;;;;;5060229;28;20193;-93
2023/05/14 10:24:52;;;;;;;7.07;4.25;;;25.50;99.90;;;;;;5035663;28;20205;-93
2023/05/14 10:27:20;;;;;;;8.07;4.38;;;25.40;99.90;;;;;;5037014;28;20224;-93
2023/05/14 10:29:53;;;;;;;10.93;4.32;;;25.40;99.90;;;;;;5034712;28;20197;-93
2023/05/14 10:32:24;;;;;;;11.65;3.85;;;25.40;99.90;;;;;;5034243;28;20201;-93
2023/05/14 10:34:51;;;;;;;7.28;4.07;;;25.20;99.90;;;;;;5035859;28;20202;-95
2023/05/14 10:37:20;;;;;;;8.60;4.43;;;25.00;99.90;;;;;;5034290;28;20190;-93
2023/05/14 10:39:49;;;;;;;8.60;4.35;;;24.80;99.90;;;;;;5039644;28;20191;-93
2023/05/14 10:42:19;;;;;;;11.35;4.28;;;24.60;99.90;;;;;;5054529;28;20207;-93
2023/05/14 10:44:52;;;;;;;10.38;4.88;;;24.30;99.90;;;;;;5053679;28;20216;-96
2023/05/14 10:47:21;;;;;;;6.30;4.10;;;24.00;99.90;;;;;;5033977;28;20228;-94
2023/05/14 10:49:51;;;;;;;8.70;4.25;;;23.80;99.90;;;;;;5034167;28;20571;-93
2023/05/14 10:52:19;;;;;;;5.38;3.95;;;23.60;99.90;;;;;;5034390;28;20534;-93
2023/05/14 10:54:53;;;;;;;5.88;4.20;;;23.50;99.90;;;;;;5034265;28;20212;-93
2023/05/14 10:57:21;;;;;;;5.40;3.60;;;23.50;99.90;;;;;;5034326;28;20189;-93
2023/05/14 10:59:52;;;;;;;8.05;4.07;;;23.50;99.90;;;;;;5034394;28;20197;-94
2023/05/14 11:02:24;;;;;;;11.95;4.60;;;23.70;99.90;;;;;;5034496;28;20701;-93
2023/05/14 11:05:02;;;;;;;7.25;4.22;;;23.90;99.90;;;;;;5034032;28;20206;-93
2023/05/14 11:07:31;;;;;;;12.55;4.07;;;24.10;99.90;;;;;;5040219;28;20197;-93
2023/05/14 11:10:04;;;;;;;8.98;4.07;;;24.10;99.90;;;;;;5053357;28;20724;-93
2023/05/14 11:12:31;;;;;;;6.78;4.03;;;24.10;99.90;;;;;;5054129;28;20212;-94
2023/05/14 11:15:00;;;;;;;5.03;3.70;;;23.90;99.90;;;;;;5054043;28;20199;-93
2023/05/14 11:17:30;;;;;;;7.95;3.90;;;23.70;99.90;;;;;;5054040;28;20196;-93
2023/05/14 11:19:58;;;;;;;6.55;3.80;;;23.50;99.90;;;;;;5053703;28;20196;-93
2023/05/14 11:22:25;;;;;;;6.60;3.70;;;23.40;99.90;;;;;;5054092;28;20203;-93
2023/05/14 11:24:52;;;;;;;6.05;3.75;;;23.20;99.90;;;;;;5044797;28;20196;-93
2023/05/14 11:27:20;;;;;;;6.90;3.95;;;23.10;99.90;;;;;;5033673;28;20194;-93
2023/05/14 11:29:48;;;;;;;4.70;3.45;;;23.10;99.90;;;;;;5033635;28;20200;-93
2023/05/14 11:32:16;;;;;;;5.85;4.00;;;23.00;99.90;;;;;;5033809;28;20704;-93
2023/05/14 11:34:45;;;;;;;7.63;3.58;;;22.90;99.90;;;;;;5048510;28;20192;-92
2023/05/14 11:37:13;;;;;;;8.43;3.80;;;22.70;99.90;;;;;;5051407;28;20197;-93
2023/05/14 11:39:45;;;;;;;8.40;4.00;;;22.60;99.90;;;;;;5056621;28;20189;-94
2023/05/14 11:42:13;;;;;;;4.07;3.50;;;22.50;99.90;;;;;;5057849;28;20193;-94
2023/05/14 11:44:41;;;;;;;6.53;3.70;;;22.50;99.90;;;;;;5057012;28;20590;-94
2023/05/14 11:47:08;;;;;;;6.32;3.30;;;22.40;99.90;;;;;;5057149;28;20193;-93
2023/05/14 11:49:36;;;;;;;6.55;3.40;;;22.40;99.90;;;;;;5057357;28;20539;-93
2023/05/14 11:52:06;;;;;;;5.60;3.70;;;22.40;99.90;;;;;;5057265;28;20632;-93
2023/05/14 11:54:34;;;;;;;9.00;4.05;;;22.30;99.90;;;;;;5056217;28;20191;-93
2023/05/14 11:57:03;;;;;;;5.38;3.95;;;22.30;99.90;;;;;;5055879;28;20205;-94
2023/05/14 11:59:31;;;;;;;9.02;3.85;;;22.30;99.90;;;;;;5037284;28;20193;-95
2023/05/14 12:01:59;;;;;;;6.32;3.90;;;22.30;99.90;;;;;;5037471;28;20198;-95
2023/05/14 12:04:25;;;;;;;7.22;3.83;;;22.20;99.90;;;;;;5037033;28;20197;-93
2023/05/14 12:06:53;;;;;;;4.22;3.75;;;22.20;99.90;;;;;;5041808;28;20638;-92
2023/05/14 12:09:22;;;;;;;7.93;3.83;;;22.30;99.90;;;;;;5052202;28;20554;-95
2023/05/14 12:11:50;;;;;;;4.65;3.38;;;22.50;99.90;;;;;;5056411;28;20221;-94
2023/05/14 12:14:19;;;;;;;4.80;3.45;;;22.80;99.90;;;;;;5056931;28;20205;-94
2023/05/14 12:16:46;;;;;;;6.88;3.35;;;23.10;99.90;;;;;;5049446;28;20194;-95
2023/05/14 12:19:15;;;;;;;7.35;3.35;;;23.50;99.90;;;;;;5049200;28;20205;-94
2023/05/14 12:21:43;;;;;;;5.43;3.50;;;23.90;99.90;;;;;;5043919;28;20188;-94
2023/05/14 12:24:11;;;;;;;4.57;3.50;;;24.30;99.90;;;;;;5061137;28;20196;-93
2023/05/14 12:26:44;;;;;;;7.32;3.63;;;24.60;99.90;;;;;;5076225;28;20598;-93
2023/05/14 12:29:13;;;;;;;6.35;3.70;;;24.90;99.90;;;;;;5037184;28;20197;-94
2023/05/14 12:31:46;;;;;;;3.92;3.30;;;25.00;99.90;;;;;;5044766;28;20221;-93
2023/05/14 12:34:13;;;;;;;5.40;3.60;;;25.00;99.90;;;;;;5063764;28;20664;-94
2023/05/14 12:36:40;;;;;;;7.80;4.10;;;25.00;99.90;;;;;;5067137;28;20199;-95
2023/05/14 12:39:07;;;;;;;7.05;3.60;;;24.80;99.90;;;;;;5053563;28;20568;-94
2023/05/14 12:41:34;;;;;;;7.43;3.92;;;25.00;99.90;;;;;;5049197;28;20208;-95
2023/05/14 12:44:03;;;;;;;7.15;4.30;;;25.10;99.90;;;;;;5045639;28;20229;-94
2023/05/14 12:46:29;;;;;;;6.38;3.65;;;25.30;99.90;;;;;;5037242;28;20220;-94
2023/05/14 12:48:57;;;;;;;4.53;3.60;;;25.40;99.90;;;;;;5049302;28;20207;-95